Decoded Metar for PAOH (HOONAH in AK, USA) (IATA:OOH) | Meteo·Mobile Aviation Weather
aviador You're here:

PAOH Decoded Metar

HOONAH in AK, USA
Report Time2018-09-18 20:56:00
UTC Time2018-09-18 21:43:18
Flight Rules vfr VFR
Wind270° at 04 kt
W.Decomp.*RWY 24: 3.9 kt HW 0.7 kt RCW
W.Rank270° ranks 6
Current wind is below 270° avg. (5.2)
Visibility9999 m
Phenomena:N/A
Clouds:N/A
Expected CloudBase > 4,800 ft AGL from Temp-Dew spread
CeilingNone
Temp14°C (ISA -1)
Dew Point02°C (44% RH)
AAT10.9°C
QNH1021 hPa
Density Alt-253 ft
Elevation30 ft
Report Wrong Elevation
Raw Report
PAOH 182056Z AUTO 27004KT 10SM CLR 14/02 A3016 RMK AO2 SLP216
T01440017 58008=

Extra information for PAOH:More info

Metar Taf Metar & Taf Last 4 Metars F.Rules Stats Wind Profile Meteogram Temp Stats Airport Information Weather charts Add Link Nearby VenuesMetar ALERT Operation Metar Decoded Social comments

AIRNAV info for PAOH